sensor_id;sensor_type;location;lat;lon;timestamp;pressure;altitude;pressure_sealevel;temperature;humidity
58975;BME280;44751;52.236;5.178;2023-02-18T02:38:11;101833.78;;;8.69;100.00
58975;BME280;44751;52.236;5.178;2023-02-18T02:43:54;101807.34;;;8.74;100.00
58975;BME280;44751;52.236;5.178;2023-02-18T02:46:30;101799.25;;;8.74;100.00
58975;BME280;44751;52.236;5.178;2023-02-18T02:54:25;101793.28;;;8.81;100.00
58975;BME280;44751;52.236;5.178;2023-02-18T03:00:00;101790.88;;;8.87;100.00
58975;BME280;44751;52.236;5.178;2023-02-18T03:03:00;101784.22;;;8.82;100.00
58975;BME280;44751;52.236;5.178;2023-02-18T03:05:54;101783.50;;;8.89;100.00
58975;BME280;44751;52.236;5.178;2023-02-18T03:11:06;101784.66;;;8.87;100.00
58975;BME280;44751;52.236;5.178;2023-02-18T03:16:27;101784.19;;;8.91;100.00
58975;BME280;44751;52.236;5.178;2023-02-18T03:19:07;101766.50;;;8.89;100.00
58975;BME280;44751;52.236;5.178;2023-02-18T03:22:26;101764.50;;;9.01;100.00
58975;BME280;44751;52.236;5.178;2023-02-18T03:24:29;101753.16;;;8.97;100.00
58975;BME280;44751;52.236;5.178;2023-02-18T03:27:17;101749.22;;;8.91;100.00
58975;BME280;44751;52.236;5.178;2023-02-18T03:29:51;101736.59;;;8.92;100.00
58975;BME280;44751;52.236;5.178;2023-02-18T03:32:21;101728.94;;;8.97;100.00
58975;BME280;44751;52.236;5.178;2023-02-18T03:34:54;101718.03;;;8.99;100.00
58975;BME280;44751;52.236;5.178;2023-02-18T03:37:22;101720.56;;;9.00;100.00
58975;BME280;44751;52.236;5.178;2023-02-18T03:39:56;101713.66;;;8.98;100.00
58975;BME280;44751;52.236;5.178;2023-02-18T03:42:26;101715.06;;;9.02;100.00
58975;BME280;44751;52.236;5.178;2023-02-18T03:44:54;101708.22;;;9.08;100.00
58975;BME280;44751;52.236;5.178;2023-02-18T03:47:20;101703.84;;;9.07;100.00
58975;BME280;44751;52.236;5.178;2023-02-18T03:49:47;101699.16;;;9.09;100.00
58975;BME280;44751;52.236;5.178;2023-02-18T03:52:14;101690.78;;;9.12;100.00
58975;BME280;44751;52.236;5.178;2023-02-18T03:54:40;101694.22;;;9.04;100.00
58975;BME280;44751;52.236;5.178;2023-02-18T03:57:07;101694.88;;;9.16;100.00
58975;BME280;44751;52.236;5.178;2023-02-18T03:59:34;101681.31;;;9.08;100.00
58975;BME280;44751;52.236;5.178;2023-02-18T04:02:00;101686.09;;;9.14;100.00
58975;BME280;44751;52.236;5.178;2023-02-18T04:04:30;101681.59;;;9.04;100.00
58975;BME280;44751;52.236;5.178;2023-02-18T04:06:58;101671.13;;;9.01;100.00
58975;BME280;44751;52.236;5.178;2023-02-18T04:09:24;101681.47;;;9.06;100.00
58975;BME280;44751;52.236;5.178;2023-02-18T04:11:51;101671.13;;;9.01;100.00
58975;BME280;44751;52.236;5.178;2023-02-18T04:14:17;101664.25;;;8.89;100.00
58975;BME280;44751;52.236;5.178;2023-02-18T04:16:44;101659.72;;;8.89;100.00
58975;BME280;44751;52.236;5.178;2023-02-18T04:19:10;101652.78;;;8.87;100.00
58975;BME280;44751;52.236;5.178;2023-02-18T04:21:39;101657.47;;;8.85;100.00
58975;BME280;44751;52.236;5.178;2023-02-18T04:24:06;101650.09;;;8.87;100.00
58975;BME280;44751;52.236;5.178;2023-02-18T04:26:32;101657.16;;;8.88;100.00
58975;BME280;44751;52.236;5.178;2023-02-18T04:28:58;101660.25;;;8.93;100.00
58975;BME280;44751;52.236;5.178;2023-02-18T04:31:25;101662.59;;;8.78;100.00
58975;BME280;44751;52.236;5.178;2023-02-18T04:33:51;101643.16;;;8.84;100.00
58975;BME280;44751;52.236;5.178;2023-02-18T04:36:18;101647.66;;;8.94;100.00
58975;BME280;44751;52.236;5.178;2023-02-18T04:38:44;101629.91;;;9.01;100.00
58975;BME280;44751;52.236;5.178;2023-02-18T04:41:11;101629.22;;;8.99;100.00
58975;BME280;44751;52.236;5.178;2023-02-18T04:43:38;101632.91;;;8.98;100.00
58975;BME280;44751;52.236;5.178;2023-02-18T04:46:07;101614.59;;;9.01;100.00
58975;BME280;44751;52.236;5.178;2023-02-18T04:48:33;101612.63;;;9.03;100.00
58975;BME280;44751;52.236;5.178;2023-02-18T04:51:00;101625.22;;;9.03;100.00
58975;BME280;44751;52.236;5.178;2023-02-18T04:53:27;101607.25;;;9.03;100.00
58975;BME280;44751;52.236;5.178;2023-02-18T04:55:53;101613.56;;;9.12;100.00
58975;BME280;44751;52.236;5.178;2023-02-18T04:58:20;101615.84;;;9.07;100.00
58975;BME280;44751;52.236;5.178;2023-02-18T05:00:49;101619.25;;;9.09;100.00
58975;BME280;44751;52.236;5.178;2023-02-18T05:03:18;101621.66;;;9.12;100.00
58975;BME280;44751;52.236;5.178;2023-02-18T05:05:44;101619.94;;;9.11;100.00
58975;BME280;44751;52.236;5.178;2023-02-18T05:08:11;101613.72;;;9.11;100.00
58975;BME280;44751;52.236;5.178;2023-02-18T05:10:38;101612.31;;;9.07;100.00
58975;BME280;44751;52.236;5.178;2023-02-18T05:13:07;101622.53;;;9.03;100.00
58975;BME280;44751;52.236;5.178;2023-02-18T05:15:34;101607.84;;;9.15;100.00
58975;BME280;44751;52.236;5.178;2023-02-18T05:18:00;101612.41;;;9.15;100.00
58975;BME280;44751;52.236;5.178;2023-02-18T05:20:27;101603.19;;;9.17;100.00
58975;BME280;44751;52.236;5.178;2023-02-18T05:22:54;101600.50;;;9.17;100.00
58975;BME280;44751;52.236;5.178;2023-02-18T05:25:21;101600.88;;;9.23;100.00
58975;BME280;44751;52.236;5.178;2023-02-18T05:27:50;101594.91;;;9.29;100.00
58975;BME280;44751;52.236;5.178;2023-02-18T05:30:16;101589.97;;;9.24;100.00
58975;BME280;44751;52.236;5.178;2023-02-18T05:32:43;101583.56;;;9.25;100.00
58975;BME280;44751;52.236;5.178;2023-02-18T05:35:10;101580.88;;;9.25;100.00
58975;BME280;44751;52.236;5.178;2023-02-18T05:37:37;101574.50;;;9.26;100.00
58975;BME280;44751;52.236;5.178;2023-02-18T05:40:05;101567.75;;;9.22;100.00
58975;BME280;44751;52.236;5.178;2023-02-18T05:42:31;101572.66;;;9.27;100.00
58975;BME280;44751;52.236;5.178;2023-02-18T05:44:58;101570.09;;;9.25;100.00
58975;BME280;44751;52.236;5.178;2023-02-18T05:47:24;101574.03;;;9.31;100.00
58975;BME280;44751;52.236;5.178;2023-02-18T05:49:51;101580.44;;;9.30;100.00
58975;BME280;44751;52.236;5.178;2023-02-18T05:52:20;101583.28;;;9.28;100.00
58975;BME280;44751;52.236;5.178;2023-02-18T05:54:47;101556.03;;;9.32;100.00
58975;BME280;44751;52.236;5.178;2023-02-18T05:57:14;101559.91;;;9.29;100.00
58975;BME280;44751;52.236;5.178;2023-02-18T05:59:41;101571.19;;;9.33;100.00
58975;BME280;44751;52.236;5.178;2023-02-18T06:02:07;101564.19;;;9.40;100.00
58975;BME280;44751;52.236;5.178;2023-02-18T06:04:34;101566.66;;;9.33;100.00
58975;BME280;44751;52.236;5.178;2023-02-18T06:07:05;101563.56;;;9.28;100.00
58975;BME280;44751;52.236;5.178;2023-02-18T06:09:32;101572.66;;;9.45;100.00
58975;BME280;44751;52.236;5.178;2023-02-18T06:11:58;101565.59;;;9.44;100.00
58975;BME280;44751;52.236;5.178;2023-02-18T06:14:25;101562.38;;;9.40;100.00
58975;BME280;44751;52.236;5.178;2023-02-18T06:16:51;101578.75;;;9.47;100.00
58975;BME280;44751;52.236;5.178;2023-02-18T06:19:20;101561.06;;;9.45;100.00
58975;BME280;44751;52.236;5.178;2023-02-18T06:21:47;101563.34;;;9.58;100.00
58975;BME280;44751;52.236;5.178;2023-02-18T06:24:13;101570.09;;;9.62;100.00
58975;BME280;44751;52.236;5.178;2023-02-18T06:26:40;101551.34;;;9.52;100.00
58975;BME280;44751;52.236;5.178;2023-02-18T06:29:06;101562.03;;;9.43;100.00
58975;BME280;44751;52.236;5.178;2023-02-18T06:31:33;101563.88;;;9.61;100.00
58975;BME280;44751;52.236;5.178;2023-02-18T06:34:17;101576.50;;;9.61;100.00
58975;BME280;44751;52.236;5.178;2023-02-18T06:36:56;101573.22;;;9.49;100.00
58975;BME280;44751;52.236;5.178;2023-02-18T06:39:27;101574.81;;;9.41;100.00
58975;BME280;44751;52.236;5.178;2023-02-18T06:41:54;101560.56;;;9.49;100.00
58975;BME280;44751;52.236;5.178;2023-02-18T06:44:28;101581.16;;;9.50;100.00
58975;BME280;44751;52.236;5.178;2023-02-18T06:46:58;101579.13;;;9.52;100.00
58975;BME280;44751;52.236;5.178;2023-02-18T06:49:31;101571.50;;;9.48;100.00
58975;BME280;44751;52.236;5.178;2023-02-18T06:51:58;101565.28;;;9.47;100.00
58975;BME280;44751;52.236;5.178;2023-02-18T06:54:27;101566.44;;;9.45;100.00
58975;BME280;44751;52.236;5.178;2023-02-18T06:56:54;101550.22;;;9.36;100.00
58975;BME280;44751;52.236;5.178;2023-02-18T06:59:28;101567.34;;;9.53;100.00
58975;BME280;44751;52.236;5.178;2023-02-18T07:01:55;101550.97;;;9.47;100.00
58975;BME280;44751;52.236;5.178;2023-02-18T08:02:48;101559.09;;;9.00;100.00
58975;BME280;44751;52.236;5.178;2023-02-18T08:05:15;101581.19;;;9.04;100.00
58975;BME280;44751;52.236;5.178;2023-02-18T08:07:44;101572.69;;;8.99;100.00
58975;BME280;44751;52.236;5.178;2023-02-18T08:10:11;101558.63;;;9.05;100.00
58975;BME280;44751;52.236;5.178;2023-02-18T08:12:37;101566.00;;;9.03;100.00
58975;BME280;44751;52.236;5.178;2023-02-18T08:15:04;101560.81;;;8.91;100.00
58975;BME280;44751;52.236;5.178;2023-02-18T08:17:33;101581.22;;;8.94;100.00
58975;BME280;44751;52.236;5.178;2023-02-18T08:20:00;101579.13;;;8.88;100.00
58975;BME280;44751;52.236;5.178;2023-02-18T08:22:31;101565.28;;;8.83;100.00
58975;BME280;44751;52.236;5.178;2023-02-18T08:24:57;101565.28;;;8.83;100.00
58975;BME280;44751;52.236;5.178;2023-02-18T08:27:24;101572.94;;;8.77;100.00
58975;BME280;44751;52.236;5.178;2023-02-18T08:29:51;101581.63;;;8.71;100.00
58975;BME280;44751;52.236;5.178;2023-02-18T08:32:17;101589.69;;;8.71;100.00
58975;BME280;44751;52.236;5.178;2023-02-18T08:34:51;101587.09;;;8.80;100.00
58975;BME280;44751;52.236;5.178;2023-02-18T08:37:17;101587.63;;;8.83;100.00
58975;BME280;44751;52.236;5.178;2023-02-18T08:39:44;101575.47;;;8.79;100.00
58975;BME280;44751;52.236;5.178;2023-02-18T08:42:11;101582.25;;;8.83;100.00
58975;BME280;44751;52.236;5.178;2023-02-18T08:44:41;101574.41;;;8.72;100.00
58975;BME280;44751;52.236;5.178;2023-02-18T08:47:07;101576.34;;;8.80;100.00
58975;BME280;44751;52.236;5.178;2023-02-18T08:49:34;101582.25;;;8.83;100.00
58975;BME280;44751;52.236;5.178;2023-02-18T08:52:02;101575.19;;;8.82;100.00
58975;BME280;44751;52.236;5.178;2023-02-18T08:54:29;101568.16;;;8.71;100.00
58975;BME280;44751;52.236;5.178;2023-02-18T08:56:58;101582.00;;;8.76;100.00
58975;BME280;44751;52.236;5.178;2023-02-18T08:59:25;101586.97;;;8.81;100.00
58975;BME280;44751;52.236;5.178;2023-02-18T09:01:51;101591.44;;;8.90;100.00
58975;BME280;44751;52.236;5.178;2023-02-18T09:04:18;101583.50;;;8.89;100.00
58975;BME280;44751;52.236;5.178;2023-02-18T09:06:48;101581.06;;;8.96;100.00
58975;BME280;44751;52.236;5.178;2023-02-18T09:09:18;101589.34;;;8.84;100.00
58975;BME280;44751;52.236;5.178;2023-02-18T09:11:45;101590.13;;;8.95;100.00
58975;BME280;44751;52.236;5.178;2023-02-18T09:14:14;101586.75;;;8.93;100.00
58975;BME280;44751;52.236;5.178;2023-02-18T09:16:43;101586.38;;;9.06;100.00
58975;BME280;44751;52.236;5.178;2023-02-18T09:19:18;101588.53;;;9.02;100.00
58975;BME280;44751;52.236;5.178;2023-02-18T09:21:46;101593.94;;;9.02;100.00
58975;BME280;44751;52.236;5.178;2023-02-18T09:24:12;101587.38;;;9.04;100.00
58975;BME280;44751;52.236;5.178;2023-02-18T09:26:40;101599.94;;;9.14;100.00
58975;BME280;44751;52.236;5.178;2023-02-18T09:29:08;101623.72;;;9.19;100.00
58975;BME280;44751;52.236;5.178;2023-02-18T09:31:44;101601.19;;;9.20;100.00
58975;BME280;44751;52.236;5.178;2023-02-18T09:34:11;101603.19;;;9.17;100.00
58975;BME280;44751;52.236;5.178;2023-02-18T09:36:38;101598.66;;;9.18;100.00
58975;BME280;44751;52.236;5.178;2023-02-18T09:39:14;101603.28;;;9.26;100.00
58975;BME280;44751;52.236;5.178;2023-02-18T09:44:25;101613.19;;;9.25;100.00
58975;BME280;44751;52.236;5.178;2023-02-18T09:49:28;101621.34;;;9.34;100.00
58975;BME280;44751;52.236;5.178;2023-02-18T09:52:04;101611.72;;;9.31;100.00
58975;BME280;44751;52.236;5.178;2023-02-18T09:54:31;101623.97;;;9.43;100.00
58975;BME280;44751;52.236;5.178;2023-02-18T09:56:58;101609.13;;;9.39;100.00
58975;BME280;44751;52.236;5.178;2023-02-18T09:59:26;101607.28;;;9.40;100.00
58975;BME280;44751;52.236;5.178;2023-02-18T10:01:56;101641.69;;;9.46;100.00
58975;BME280;44751;52.236;5.178;2023-02-18T10:04:42;101629.44;;;9.52;100.00
58975;BME280;44751;52.236;5.178;2023-02-18T10:07:26;101625.94;;;9.51;100.00
58975;BME280;44751;52.236;5.178;2023-02-18T10:10:14;101636.94;;;9.58;100.00
58975;BME280;44751;52.236;5.178;2023-02-18T10:12:44;101644.31;;;9.56;100.00
58975;BME280;44751;52.236;5.178;2023-02-18T10:15:20;101632.16;;;9.70;100.00
58975;BME280;44751;52.236;5.178;2023-02-18T10:17:51;101621.28;;;9.80;100.00
58975;BME280;44751;52.236;5.178;2023-02-18T10:20:24;101632.31;;;9.87;100.00
58975;BME280;44751;52.236;5.178;2023-02-18T10:22:56;101642.78;;;9.90;100.00
58975;BME280;44751;52.236;5.178;2023-02-18T10:25:24;101621.69;;;9.85;100.00
58975;BME280;44751;52.236;5.178;2023-02-18T10:27:53;101631.06;;;9.99;100.00
58975;BME280;44751;52.236;5.178;2023-02-18T10:30:29;101630.38;;;9.97;100.00
58975;BME280;44751;52.236;5.178;2023-02-18T10:39:18;101663.03;;;10.39;100.00
58975;BME280;44751;52.236;5.178;2023-02-18T10:42:04;101668.84;;;10.26;100.00
58975;BME280;44751;52.236;5.178;2023-02-18T10:44:57;101664.19;;;10.36;100.00
58975;BME280;44751;52.236;5.178;2023-02-18T10:48:08;101668.34;;;10.49;100.00
58975;BME280;44751;52.236;5.178;2023-02-18T10:50:41;101658.94;;;10.34;100.00
58975;BME280;44751;52.236;5.178;2023-02-18T10:53:15;101655.47;;;10.42;100.00
58975;BME280;44751;52.236;5.178;2023-02-18T10:55:47;101658.88;;;10.44;100.00
58975;BME280;44751;52.236;5.178;2023-02-18T10:58:32;101665.94;;;10.64;100.00
58975;BME280;44751;52.236;5.178;2023-02-18T11:01:06;101658.88;;;10.44;100.00
58975;BME280;44751;52.236;5.178;2023-02-18T11:06:26;101678.88;;;10.60;100.00
58975;BME280;44751;52.236;5.178;2023-02-18T11:09:05;101657.56;;;10.49;100.00
58975;BME280;44751;52.236;5.178;2023-02-18T11:11:37;101665.25;;;10.43;100.00
58975;BME280;44751;52.236;5.178;2023-02-18T11:14:09;101661.19;;;10.39;100.00
58975;BME280;44751;52.236;5.178;2023-02-18T11:16:46;101662.00;;;10.31;100.00
58975;BME280;44751;52.236;5.178;2023-02-18T11:19:35;101658.75;;;10.28;100.00
58975;BME280;44751;52.236;5.178;2023-02-18T11:22:18;101644.94;;;10.31;100.00
58975;BME280;44751;52.236;5.178;2023-02-18T11:24:47;101661.78;;;10.06;100.00
58975;BME280;44751;52.236;5.178;2023-02-18T11:27:24;101658.41;;;10.04;100.00
58975;BME280;44751;52.236;5.178;2023-02-18T11:30:03;101659.47;;;10.12;100.00
58975;BME280;44751;52.236;5.178;2023-02-18T11:32:33;101670.13;;;10.13;100.00
58975;BME280;44751;52.236;5.178;2023-02-18T11:35:02;101660.81;;;10.34;100.00
58975;BME280;44751;52.236;5.178;2023-02-18T11:37:32;101675.84;;;10.37;100.00
58975;BME280;44751;52.236;5.178;2023-02-18T11:39:59;101649.97;;;10.26;100.00
58975;BME280;44751;52.236;5.178;2023-02-18T11:42:26;101648.09;;;10.44;100.00
58975;BME280;44751;52.236;5.178;2023-02-18T11:44:55;101655.47;;;10.42;100.00
58975;BME280;44751;52.236;5.178;2023-02-18T11:47:34;101658.88;;;10.71;100.00
58975;BME280;44751;52.236;5.178;2023-02-18T11:52:36;101660.91;;;10.69;100.00
58975;BME280;44751;52.236;5.178;2023-02-18T11:55:23;101664.94;;;10.65;100.00
58975;BME280;44751;52.236;5.178;2023-02-18T11:57:56;101663.09;;;10.65;100.00
58975;BME280;44751;52.236;5.178;2023-02-18T12:00:42;101659.88;;;10.70;100.00
58975;BME280;44751;52.236;5.178;2023-02-18T12:03:40;101667.66;;;10.73;100.00
58975;BME280;44751;52.236;5.178;2023-02-18T12:06:27;101661.41;;;10.72;100.00
58975;BME280;44751;52.236;5.178;2023-02-18T12:12:13;101656.38;;;10.69;100.00
58975;BME280;44751;52.236;5.178;2023-02-18T12:14:44;101657.22;;;10.78;100.00
58975;BME280;44751;52.236;5.178;2023-02-18T12:23:21;101657.75;;;11.17;100.00
58975;BME280;44751;52.236;5.178;2023-02-18T12:31:18;101645.03;;;11.09;100.00
58975;BME280;44751;52.236;5.178;2023-02-18T12:33:58;101656.91;;;11.16;100.00
58975;BME280;44751;52.236;5.178;2023-02-18T12:36:49;101657.22;;;11.13;100.00
58975;BME280;44751;52.236;5.178;2023-02-18T12:45:12;101659.81;;;11.40;100.00
58975;BME280;44751;52.236;5.178;2023-02-18T12:50:53;101665.72;;;11.27;100.00
58975;BME280;44751;52.236;5.178;2023-02-18T12:56:20;101668.31;;;11.53;100.00
58975;BME280;44751;52.236;5.178;2023-02-18T13:02:07;101679.13;;;11.45;100.00
58975;BME280;44751;52.236;5.178;2023-02-18T13:11:29;101680.06;;;11.27;100.00
58975;BME280;44751;52.236;5.178;2023-02-18T13:16:25;101680.53;;;11.14;100.00
58975;BME280;44751;52.236;5.178;2023-02-18T13:19:01;101685.72;;;11.07;100.00
58975;BME280;44751;52.236;5.178;2023-02-18T13:21:30;101689.16;;;11.18;100.00
58975;BME280;44751;52.236;5.178;2023-02-18T13:24:03;101676.13;;;11.13;100.00
58975;BME280;44751;52.236;5.178;2023-02-18T13:26:34;101671.25;;;11.17;100.00
58975;BME280;44751;52.236;5.178;2023-02-18T13:29:13;101679.91;;;11.37;100.00
58975;BME280;44751;52.236;5.178;2023-02-18T13:32:08;101675.50;;;11.28;100.00
58975;BME280;44751;52.236;5.178;2023-02-18T13:34:59;101676.06;;;11.48;100.00
58975;BME280;44751;52.236;5.178;2023-02-18T13:37:54;101675.03;;;11.32;100.00
58975;BME280;44751;52.236;5.178;2023-02-18T13:40:34;101691.75;;;11.36;100.00
58975;BME280;44751;52.236;5.178;2023-02-18T13:43:30;101683.19;;;11.49;100.00
58975;BME280;44751;52.236;5.178;2023-02-18T13:46:18;101684.41;;;11.71;100.00
58975;BME280;44751;52.236;5.178;2023-02-18T13:49:05;101691.00;;;11.69;100.00
58975;BME280;44751;52.236;5.178;2023-02-18T13:51:47;101688.25;;;11.52;100.00
58975;BME280;44751;52.236;5.178;2023-02-18T13:57:24;101686.22;;;11.46;100.00
58975;BME280;44751;52.236;5.178;2023-02-18T14:00:02;101679.81;;;11.63;100.00
58975;BME280;44751;52.236;5.178;2023-02-18T14:02:33;101681.19;;;11.68;100.00
58975;BME280;44751;52.236;5.178;2023-02-18T14:07:44;101667.00;;;11.74;100.00
58975;BME280;44751;52.236;5.178;2023-02-18T14:18:21;101692.19;;;11.66;100.00
58975;BME280;44751;52.236;5.178;2023-02-18T14:23:38;101686.72;;;11.58;100.00
58975;BME280;44751;52.236;5.178;2023-02-18T14:26:20;101675.41;;;11.46;100.00
58975;BME280;44751;52.236;5.178;2023-02-18T14:28:53;101684.38;;;11.55;100.00
58975;BME280;44751;52.236;5.178;2023-02-18T14:31:36;101699.09;;;11.60;100.00
58975;BME280;44751;52.236;5.178;2023-02-18T14:40:03;101699.25;;;11.59;100.00
58975;BME280;44751;52.236;5.178;2023-02-18T14:43:03;101692.25;;;11.40;100.00
58975;BME280;44751;52.236;5.178;2023-02-18T14:45:57;101686.00;;;11.31;100.00
58975;BME280;44751;52.236;5.178;2023-02-18T14:51:08;101670.81;;;11.38;100.00
58975;BME280;44751;52.236;5.178;2023-02-18T14:53:44;101705.13;;;11.46;100.00
58975;BME280;44751;52.236;5.178;2023-02-18T14:56:18;101682.78;;;11.35;100.00
58975;BME280;44751;52.236;5.178;2023-02-18T14:59:01;101715.34;;;11.26;100.00
58975;BME280;44751;52.236;5.178;2023-02-18T15:01:34;101692.03;;;11.24;100.00
58975;BME280;44751;52.236;5.178;2023-02-18T15:04:02;101692.00;;;11.16;100.00
58975;BME280;44751;52.236;5.178;2023-02-18T15:06:33;101698.66;;;11.30;100.00
58975;BME280;44751;52.236;5.178;2023-02-18T15:09:18;101697.78;;;11.30;100.00
58975;BME280;44751;52.236;5.178;2023-02-18T15:11:51;101703.34;;;11.20;100.00
58975;BME280;44751;52.236;5.178;2023-02-18T15:14:26;101713.78;;;11.15;100.00
58975;BME280;44751;52.236;5.178;2023-02-18T15:16:57;101711.22;;;11.13;100.00
58975;BME280;44751;52.236;5.178;2023-02-18T15:19:32;101704.69;;;11.16;100.00
58975;BME280;44751;52.236;5.178;2023-02-18T15:22:03;101703.78;;;11.07;100.00
58975;BME280;44751;52.236;5.178;2023-02-18T15:24:34;101698.53;;;11.05;100.00
58975;BME280;44751;52.236;5.178;2023-02-18T15:27:13;101699.72;;;11.03;100.00
58975;BME280;44751;52.236;5.178;2023-02-18T15:29:41;101711.06;;;11.15;100.00
58975;BME280;44751;52.236;5.178;2023-02-18T15:32:17;101709.47;;;10.95;100.00
58975;BME280;44751;52.236;5.178;2023-02-18T15:35:17;101694.75;;;10.90;100.00
58975;BME280;44751;52.236;5.178;2023-02-18T15:37:54;101695.00;;;11.05;100.00
58975;BME280;44751;52.236;5.178;2023-02-18T15:40:24;101700.91;;;11.00;100.00
58975;BME280;44751;52.236;5.178;2023-02-18T15:42:56;101701.41;;;11.04;100.00
58975;BME280;44751;52.236;5.178;2023-02-18T15:45:43;101706.97;;;11.02;100.00
58975;BME280;44751;52.236;5.178;2023-02-18T15:48:23;101705.09;;;10.94;100.00
58975;BME280;44751;52.236;5.178;2023-02-18T15:50:55;101707.81;;;11.03;100.00
58975;BME280;44751;52.236;5.178;2023-02-18T15:53:22;101701.31;;;10.87;100.00
58975;BME280;44751;52.236;5.178;2023-02-18T15:55:51;101706.72;;;10.87;100.00
58975;BME280;44751;52.236;5.178;2023-02-18T15:58:30;101708.66;;;10.77;100.00
58975;BME280;44751;52.236;5.178;2023-02-18T16:01:00;101706.69;;;10.79;100.00
58975;BME280;44751;52.236;5.178;2023-02-18T16:09:14;101696.50;;;10.72;100.00
58975;BME280;44751;52.236;5.178;2023-02-18T16:11:48;101695.88;;;10.52;100.00
58975;BME280;44751;52.236;5.178;2023-02-18T16:14:39;101688.63;;;10.53;100.00
58975;BME280;44751;52.236;5.178;2023-02-18T16:17:17;101699.09;;;10.56;100.00
58975;BME280;44751;52.236;5.178;2023-02-18T16:24:56;101695.88;;;10.52;100.00
58975;BME280;44751;52.236;5.178;2023-02-18T16:27:30;101702.06;;;10.44;100.00
58975;BME280;44751;52.236;5.178;2023-02-18T16:29:59;101704.19;;;10.41;100.00
58975;BME280;44751;52.236;5.178;2023-02-18T16:32:27;101710.44;;;10.41;100.00
58975;BME280;44751;52.236;5.178;2023-02-18T16:34:53;101705.44;;;10.46;100.00
58975;BME280;44751;52.236;5.178;2023-02-18T16:37:21;101705.00;;;10.51;100.00
58975;BME280;44751;52.236;5.178;2023-02-18T16:40:31;101700.34;;;10.43;100.00
58975;BME280;44751;52.236;5.178;2023-02-18T16:45:38;101697.50;;;10.45;100.00
58975;BME280;44751;52.236;5.178;2023-02-18T16:48:10;101701.50;;;10.41;100.00
58975;BME280;44751;52.236;5.178;2023-02-18T16:50:48;101705.50;;;10.37;100.00
58975;BME280;44751;52.236;5.178;2023-02-18T16:53:16;101696.19;;;10.31;100.00
58975;BME280;44751;52.236;5.178;2023-02-18T16:55:44;101703.22;;;10.24;100.00
58975;BME280;44751;52.236;5.178;2023-02-18T16:58:11;101698.13;;;10.20;100.00
58975;BME280;44751;52.236;5.178;2023-02-18T17:00:38;101691.19;;;10.18;100.00
58975;BME280;44751;52.236;5.178;2023-02-18T17:03:05;101689.28;;;10.28;100.00
58975;BME280;44751;52.236;5.178;2023-02-18T17:05:36;101702.19;;;10.25;100.00
58975;BME280;44751;52.236;5.178;2023-02-18T17:10:39;101704.91;;;10.25;100.00
58975;BME280;44751;52.236;5.178;2023-02-18T17:13:18;101704.06;;;10.24;100.00
58975;BME280;44751;52.236;5.178;2023-02-18T17:15:47;101696.75;;;10.16;100.00
58975;BME280;44751;52.236;5.178;2023-02-18T17:18:15;101710.28;;;10.25;100.00
58975;BME280;44751;52.236;5.178;2023-02-18T17:20:41;101703.00;;;10.17;100.00
58975;BME280;44751;52.236;5.178;2023-02-18T17:23:15;101689.50;;;10.17;100.00
58975;BME280;44751;52.236;5.178;2023-02-18T17:25:43;101695.97;;;10.24;100.00
58975;BME280;44751;52.236;5.178;2023-02-18T17:28:10;101689.88;;;10.22;100.00
58975;BME280;44751;52.236;5.178;2023-02-18T17:30:38;101687.28;;;10.12;100.00
58975;BME280;44751;52.236;5.178;2023-02-18T17:33:06;101689.97;;;10.12;100.00
58975;BME280;44751;52.236;5.178;2023-02-18T17:35:33;101692.91;;;10.19;100.00
58975;BME280;44751;52.236;5.178;2023-02-18T17:37:59;101693.44;;;10.23;100.00
58975;BME280;44751;52.236;5.178;2023-02-18T17:40:27;101696.19;;;10.31;100.00
58975;BME280;44751;52.236;5.178;2023-02-18T17:42:56;101691.25;;;10.26;100.00
58975;BME280;44751;52.236;5.178;2023-02-18T17:45:26;101703.38;;;10.22;100.00
58975;BME280;44751;52.236;5.178;2023-02-18T17:47:56;101696.06;;;10.14;100.00
58975;BME280;44751;52.236;5.178;2023-02-18T17:50:24;101700.06;;;10.10;100.00
58975;BME280;44751;52.236;5.178;2023-02-18T17:52:51;101705.91;;;10.05;100.00
58975;BME280;44751;52.236;5.178;2023-02-18T17:55:31;101709.56;;;9.96;100.00
58975;BME280;44751;52.236;5.178;2023-02-18T17:57:59;101704.84;;;9.98;100.00
58975;BME280;44751;52.236;5.178;2023-02-18T18:00:31;101710.16;;;9.90;100.00
58975;BME280;44751;52.236;5.178;2023-02-18T18:02:59;101699.94;;;9.75;100.00
58975;BME280;44751;52.236;5.178;2023-02-18T18:05:33;101702.53;;;9.67;100.00
58975;BME280;44751;52.236;5.178;2023-02-18T18:08:01;101716.16;;;9.65;100.00
58975;BME280;44751;52.236;5.178;2023-02-18T18:10:30;101710.34;;;9.60;100.00
58975;BME280;44751;52.236;5.178;2023-02-18T18:12:59;101709.03;;;9.64;100.00
58975;BME280;44751;52.236;5.178;2023-02-18T18:15:35;101703.03;;;9.52;100.00
58975;BME280;44751;52.236;5.178;2023-02-18T18:18:02;101716.22;;;9.55;100.00
58975;BME280;44751;52.236;5.178;2023-02-18T18:20:30;101719.53;;;9.67;100.00
58975;BME280;44751;52.236;5.178;2023-02-18T18:22:59;101706.19;;;9.48;100.00
58975;BME280;44751;52.236;5.178;2023-02-18T18:27:59;101712.97;;;9.52;100.00
58975;BME280;44751;52.236;5.178;2023-02-18T18:30:28;101719.72;;;9.56;100.00
58975;BME280;44751;52.236;5.178;2023-02-18T18:32:56;101727.81;;;9.56;100.00
58975;BME280;44751;52.236;5.178;2023-02-18T18:35:32;101713.56;;;9.46;100.00
58975;BME280;44751;52.236;5.178;2023-02-18T18:38:00;101720.88;;;9.53;100.00
58975;BME280;44751;52.236;5.178;2023-02-18T18:40:29;101720.06;;;9.53;100.00
58975;BME280;44751;52.236;5.178;2023-02-18T18:42:57;101717.50;;;9.51;100.00